Pendroy, Montana
Current Conditions -  °F | °C
As of 1:06 PM on Friday 28 Nov 2014 (Local Time) from KCTB Reporting Station
Haze Haze  
Wind Chill: -14°   Ceiling: 700
Heat Index:   Visibility: 5mi
Dew Point:   Wind: 26mph
Humidity: 83%   Direction: 360°N
Pressure: 29.48"   Gusts: NA
Location:  48.07°N, 112.3°W
Report Text: KCTB 282006Z AUTO 36023KT 5SM BR OVC007 M13/M16 A2948 RMK AO2 PK WND 36031/1959 SNE04 P0000 T11331156
Loading
Personal Weather Stations






























Interactive Weather Map New forecast layout! Learn more

10-Day Weather Forecast

Advertisements
Track Severe Weather on mobile